Online since October of 2007


Active alerts


No alerts

lower harbor more information Lower Harbor


mount mesnard more information Mount Mesnard


visit our other weather sites:

Template documentation
and downloads

And another site


CBI


nearby metar reports

   
KSAW - Sawyer, Michigan
updated: Jul 18 2018 12:58 am
clear  
clear  
   wind: calm
wind: calm
temperature: 46.4°F
dew point: 42.8°F
humidity: 87%
barometer: 30.14 inHg
clouds: clear
visibility: 10 mi
cloud details: clear
KSAW 180458Z AUTO 00000KT 10SM CLR 08/06 A3014 RMK AO2 T00790063
KESC - Escanaba, Michigan
updated: Jul 18 2018 12:56 am
clear  
clear  
   wind: wnw 3.5 mph
wind: wnw 3.5 mph
temperature: 48.2°F
wind chill: 46.4°F
dew point: 48.2°F
humidity: 100%
barometer: 30.13 inHg
clouds: clear
visibility: 10 mi
cloud details: clear
KESC 180456Z AUTO 29003KT 10SM CLR 09/09 A3013 RMK AO2 SLP227 T00940089 402170094
KIMT - Iron Mountain, MI
updated: Jul 18 2018 12:54 am
clear  
clear  
   wind: calm
wind: calm
temperature: 53.6°F
dew point: 50°F
humidity: 88%
barometer: 30.14 inHg
clouds: clear
visibility: 10 mi
cloud details: clear
KIMT 180454Z AUTO 00000KT 10SM CLR 12/10 A3014 RMK AO2 SLP207 T01220100
KGRB - Green Bay, WI
updated: Jul 18 2018 12:53 am
clear  
clear  
   wind: calm
wind: calm
temperature: 60.8°F
dew point: 55.4°F
humidity: 83%
barometer: 30.14 inHg
clouds: clear
visibility: 10 mi
cloud details: clear
KGRB 180453Z AUTO 00000KT 10SM CLR 16/13 A3014 RMK AO2 SLP205 T01560133
KDET - Detroit, MI
updated: Jul 18 2018 12:53 am
clear  
clear  
   wind: north 4.6 mph
wind: north 4.6 mph
temperature: 64.4°F
dew point: 55.4°F
humidity: 73%
barometer: 30.08 inHg
clouds: clear
visibility: 10 mi
cloud details: clear
KDET 180453Z 01004KT 10SM CLR 18/13 A3008 RMK AO2 SLP183 T01830128 402780183
 

script developed by  Saratoga-weather.org adapted for the template by  Weerstation Leuven

you find our weather info also at:

Weather Underground

midwestern weather network

WeatherlinkIP

Citizen Weather Observer Program (CWOP)

equipment we use:

weather-station
Davis VP2

weather-program
Davis Weatherlink.Com

Davis VP2

Davis Weatherlink.Com